Grand Ridge, Illinois
Current Conditions -  °F | °C
As of 1:35 PM on Monday 22 Dec 2014 (Local Time) from KVYS Reporting Station
Moderate Rain Moderate Rain  
Wind Chill: 28°   Ceiling: 500
Heat Index: 37°   Visibility: 2mi
Dew Point: 36°   Wind: 16mph
Humidity: 95%   Direction: 110°ESE
Pressure: 29.65"   Gusts: 21mph
Location:  41.24°N, 88.83°W
Report Text: KVYS 221935Z AUTO 11014G18KT 2SM RA OVC005 03/02 A2965 RMK AO2 P0003 T00280021
Loading
Personal Weather Stations






























Interactive Weather Map New forecast layout! Learn more

10-Day Weather Forecast

Advertisements
Track Severe Weather on mobile